In Rescue
 
Open Full Screen Window  High Contrast Mode
Wind Gusting 00 knots
07
June 20, 2021 11:00 AM CDT
Weather Information
Wind Direction
  070 °
Wind Speed
  07 kt (8 mph)
Wind Gust
  00 kt (0 mph)
Altimeter
29.61 in
Visibility
10 SM
Temperature
15° C
59° F
Dewpoint
14° C
57° F
Humidity
94%
1hr Rain Fall
00.00 in.
24hr Rain Fall
00.04 in.
Sky Condition
Overcast @ 10,000 ft
Scattered @ 7,000 ft
Scattered @ 4,900 ft
VFR

METAR K14Y 201600Z AUTO 07007KT 10SM SCT049 SCT070 OVC100 15/14 A2961 RMK AO2

FAA Disclaimer: The data displayed is for advisory purposes only and is not to be used for flight planning or operations.